sensor_id;sensor_type;location;lat;lon;timestamp;P1;durP1;ratioP1;P2;durP2;ratioP2
82635;SDS011;72317;37.280;-121.948;2023-11-21T00:00:33;2.65;;;1.00;;
82635;SDS011;72317;37.280;-121.948;2023-11-21T00:03:00;2.45;;;0.88;;
82635;SDS011;72317;37.280;-121.948;2023-11-21T00:05:26;1.42;;;0.70;;
82635;SDS011;72317;37.280;-121.948;2023-11-21T00:07:52;2.08;;;1.00;;
82635;SDS011;72317;37.280;-121.948;2023-11-21T00:10:18;2.65;;;0.80;;
82635;SDS011;72317;37.280;-121.948;2023-11-21T00:12:46;2.90;;;0.80;;
82635;SDS011;72317;37.280;-121.948;2023-11-21T00:15:13;2.92;;;0.77;;
82635;SDS011;72317;37.280;-121.948;2023-11-21T00:17:39;2.00;;;0.70;;
82635;SDS011;72317;37.280;-121.948;2023-11-21T00:20:06;1.17;;;0.70;;
82635;SDS011;72317;37.280;-121.948;2023-11-21T00:22:33;1.70;;;0.90;;
82635;SDS011;72317;37.280;-121.948;2023-11-21T00:25:01;1.85;;;0.80;;
82635;SDS011;72317;37.280;-121.948;2023-11-21T00:27:29;1.92;;;0.70;;
82635;SDS011;72317;37.280;-121.948;2023-11-21T00:29:56;3.33;;;0.80;;
82635;SDS011;72317;37.280;-121.948;2023-11-21T00:32:22;1.63;;;0.80;;
82635;SDS011;72317;37.280;-121.948;2023-11-21T00:34:48;1.30;;;0.65;;
82635;SDS011;72317;37.280;-121.948;2023-11-21T00:37:14;3.10;;;0.90;;
82635;SDS011;72317;37.280;-121.948;2023-11-21T00:39:40;2.25;;;0.73;;
82635;SDS011;72317;37.280;-121.948;2023-11-21T00:42:06;1.10;;;0.80;;
82635;SDS011;72317;37.280;-121.948;2023-11-21T00:44:33;3.72;;;0.77;;
82635;SDS011;72317;37.280;-121.948;2023-11-21T00:47:02;2.50;;;1.00;;
82635;SDS011;72317;37.280;-121.948;2023-11-21T00:49:29;2.50;;;0.80;;
82635;SDS011;72317;37.280;-121.948;2023-11-21T00:51:55;1.55;;;0.82;;
82635;SDS011;72317;37.280;-121.948;2023-11-21T00:54:23;2.83;;;0.98;;
82635;SDS011;72317;37.280;-121.948;2023-11-21T00:56:49;1.92;;;0.90;;
82635;SDS011;72317;37.280;-121.948;2023-11-21T00:59:15;2.35;;;0.90;;
82635;SDS011;72317;37.280;-121.948;2023-11-21T01:01:41;2.08;;;0.80;;
82635;SDS011;72317;37.280;-121.948;2023-11-21T01:04:08;1.38;;;0.80;;
82635;SDS011;72317;37.280;-121.948;2023-11-21T01:06:34;2.33;;;0.70;;
82635;SDS011;72317;37.280;-121.948;2023-11-21T01:09:00;2.25;;;0.80;;
82635;SDS011;72317;37.280;-121.948;2023-11-21T01:11:26;2.58;;;0.82;;
82635;SDS011;72317;37.280;-121.948;2023-11-21T01:13:52;3.20;;;0.95;;
82635;SDS011;72317;37.280;-121.948;2023-11-21T01:16:19;1.45;;;1.00;;
82635;SDS011;72317;37.280;-121.948;2023-11-21T01:18:45;3.53;;;0.80;;
82635;SDS011;72317;37.280;-121.948;2023-11-21T01:21:11;2.05;;;0.82;;
82635;SDS011;72317;37.280;-121.948;2023-11-21T01:23:37;2.80;;;1.10;;
82635;SDS011;72317;37.280;-121.948;2023-11-21T01:26:03;2.70;;;1.33;;
82635;SDS011;72317;37.280;-121.948;2023-11-21T01:28:29;2.53;;;1.08;;
82635;SDS011;72317;37.280;-121.948;2023-11-21T01:30:56;2.22;;;1.10;;
82635;SDS011;72317;37.280;-121.948;2023-11-21T01:33:23;3.70;;;1.20;;
82635;SDS011;72317;37.280;-121.948;2023-11-21T01:35:50;6.28;;;1.23;;
82635;SDS011;72317;37.280;-121.948;2023-11-21T01:38:18;3.30;;;1.08;;
82635;SDS011;72317;37.280;-121.948;2023-11-21T01:40:47;4.03;;;1.20;;
82635;SDS011;72317;37.280;-121.948;2023-11-21T01:43:14;3.88;;;1.23;;
82635;SDS011;72317;37.280;-121.948;2023-11-21T01:45:41;3.05;;;1.17;;
82635;SDS011;72317;37.280;-121.948;2023-11-21T01:48:08;3.17;;;1.02;;
82635;SDS011;72317;37.280;-121.948;2023-11-21T01:50:36;3.72;;;1.10;;
82635;SDS011;72317;37.280;-121.948;2023-11-21T01:53:05;3.67;;;1.15;;
82635;SDS011;72317;37.280;-121.948;2023-11-21T01:55:39;3.78;;;1.52;;
82635;SDS011;72317;37.280;-121.948;2023-11-21T01:58:14;6.38;;;1.80;;
82635;SDS011;72317;37.280;-121.948;2023-11-21T02:00:42;6.15;;;2.10;;
82635;SDS011;72317;37.280;-121.948;2023-11-21T02:03:09;6.10;;;1.83;;
82635;SDS011;72317;37.280;-121.948;2023-11-21T02:05:36;4.05;;;1.83;;
82635;SDS011;72317;37.280;-121.948;2023-11-21T02:08:07;1.90;;;1.40;;
82635;SDS011;72317;37.280;-121.948;2023-11-21T02:10:35;2.47;;;1.50;;
82635;SDS011;72317;37.280;-121.948;2023-11-21T02:13:03;3.05;;;1.58;;
82635;SDS011;72317;37.280;-121.948;2023-11-21T02:15:33;2.20;;;1.30;;
82635;SDS011;72317;37.280;-121.948;2023-11-21T02:18:01;2.13;;;1.40;;
82635;SDS011;72317;37.280;-121.948;2023-11-21T02:20:28;2.45;;;1.65;;
82635;SDS011;72317;37.280;-121.948;2023-11-21T02:22:56;3.97;;;1.33;;
82635;SDS011;72317;37.280;-121.948;2023-11-21T02:25:24;2.47;;;1.30;;
82635;SDS011;72317;37.280;-121.948;2023-11-21T02:28:00;4.15;;;1.17;;
82635;SDS011;72317;37.280;-121.948;2023-11-21T02:30:28;3.08;;;1.10;;
82635;SDS011;72317;37.280;-121.948;2023-11-21T02:32:57;2.95;;;1.20;;
82635;SDS011;72317;37.280;-121.948;2023-11-21T02:35:24;2.47;;;1.40;;
82635;SDS011;72317;37.280;-121.948;2023-11-21T02:37:51;2.22;;;1.30;;
82635;SDS011;72317;37.280;-121.948;2023-11-21T02:40:19;2.38;;;1.58;;
82635;SDS011;72317;37.280;-121.948;2023-11-21T02:42:47;2.22;;;1.40;;
82635;SDS011;72317;37.280;-121.948;2023-11-21T02:45:16;4.70;;;1.48;;
82635;SDS011;72317;37.280;-121.948;2023-11-21T02:47:44;5.20;;;1.60;;
82635;SDS011;72317;37.280;-121.948;2023-11-21T02:50:11;5.60;;;1.73;;
82635;SDS011;72317;37.280;-121.948;2023-11-21T02:52:39;3.10;;;1.65;;
82635;SDS011;72317;37.280;-121.948;2023-11-21T02:55:07;3.85;;;1.80;;
82635;SDS011;72317;37.280;-121.948;2023-11-21T02:57:42;4.68;;;2.00;;
82635;SDS011;72317;37.280;-121.948;2023-11-21T03:00:10;3.30;;;1.60;;
82635;SDS011;72317;37.280;-121.948;2023-11-21T03:02:38;2.90;;;1.52;;
82635;SDS011;72317;37.280;-121.948;2023-11-21T03:05:06;5.43;;;2.95;;
82635;SDS011;72317;37.280;-121.948;2023-11-21T03:07:37;6.10;;;2.83;;
82635;SDS011;72317;37.280;-121.948;2023-11-21T03:10:04;9.18;;;5.50;;
82635;SDS011;72317;37.280;-121.948;2023-11-21T03:12:34;9.10;;;6.93;;
82635;SDS011;72317;37.280;-121.948;2023-11-21T03:15:01;11.15;;;5.90;;
82635;SDS011;72317;37.280;-121.948;2023-11-21T03:17:27;7.78;;;5.85;;
82635;SDS011;72317;37.280;-121.948;2023-11-21T03:19:54;14.73;;;8.18;;
82635;SDS011;72317;37.280;-121.948;2023-11-21T03:22:22;15.00;;;9.63;;
82635;SDS011;72317;37.280;-121.948;2023-11-21T03:24:49;11.13;;;8.32;;
82635;SDS011;72317;37.280;-121.948;2023-11-21T03:27:16;10.82;;;8.00;;
82635;SDS011;72317;37.280;-121.948;2023-11-21T03:29:42;8.95;;;4.93;;
82635;SDS011;72317;37.280;-121.948;2023-11-21T03:32:10;3.70;;;2.83;;
82635;SDS011;72317;37.280;-121.948;2023-11-21T03:34:42;5.43;;;2.50;;
82635;SDS011;72317;37.280;-121.948;2023-11-21T03:37:23;4.88;;;2.35;;
82635;SDS011;72317;37.280;-121.948;2023-11-21T03:39:50;3.42;;;2.08;;
82635;SDS011;72317;37.280;-121.948;2023-11-21T03:42:16;3.88;;;2.00;;
82635;SDS011;72317;37.280;-121.948;2023-11-21T03:44:43;4.25;;;1.80;;
82635;SDS011;72317;37.280;-121.948;2023-11-21T03:47:09;3.25;;;1.65;;
82635;SDS011;72317;37.280;-121.948;2023-11-21T03:49:35;3.50;;;1.92;;
82635;SDS011;72317;37.280;-121.948;2023-11-21T03:52:01;3.75;;;1.75;;
82635;SDS011;72317;37.280;-121.948;2023-11-21T03:54:28;6.18;;;1.60;;
82635;SDS011;72317;37.280;-121.948;2023-11-21T03:56:54;3.03;;;1.60;;
82635;SDS011;72317;37.280;-121.948;2023-11-21T03:59:20;4.93;;;1.83;;
82635;SDS011;72317;37.280;-121.948;2023-11-21T04:01:48;6.65;;;2.20;;
82635;SDS011;72317;37.280;-121.948;2023-11-21T04:04:14;2.80;;;1.70;;
82635;SDS011;72317;37.280;-121.948;2023-11-21T04:06:41;5.32;;;2.10;;
82635;SDS011;72317;37.280;-121.948;2023-11-21T04:09:07;4.18;;;1.92;;
82635;SDS011;72317;37.280;-121.948;2023-11-21T04:11:33;7.10;;;2.30;;
82635;SDS011;72317;37.280;-121.948;2023-11-21T04:13:59;6.75;;;1.80;;
82635;SDS011;72317;37.280;-121.948;2023-11-21T04:16:25;3.38;;;1.85;;
82635;SDS011;72317;37.280;-121.948;2023-11-21T04:18:51;4.38;;;1.80;;
82635;SDS011;72317;37.280;-121.948;2023-11-21T04:21:17;3.72;;;1.67;;
82635;SDS011;72317;37.280;-121.948;2023-11-21T04:23:44;2.35;;;1.70;;
82635;SDS011;72317;37.280;-121.948;2023-11-21T04:26:10;4.88;;;1.70;;
82635;SDS011;72317;37.280;-121.948;2023-11-21T04:28:36;2.20;;;1.40;;
82635;SDS011;72317;37.280;-121.948;2023-11-21T04:31:02;2.67;;;1.67;;
82635;SDS011;72317;37.280;-121.948;2023-11-21T04:33:28;3.42;;;1.63;;
82635;SDS011;72317;37.280;-121.948;2023-11-21T04:35:55;3.58;;;1.73;;
82635;SDS011;72317;37.280;-121.948;2023-11-21T04:38:21;3.92;;;1.77;;
82635;SDS011;72317;37.280;-121.948;2023-11-21T04:40:47;4.15;;;1.98;;
82635;SDS011;72317;37.280;-121.948;2023-11-21T04:43:14;5.70;;;2.20;;
82635;SDS011;72317;37.280;-121.948;2023-11-21T04:45:40;4.32;;;2.42;;
82635;SDS011;72317;37.280;-121.948;2023-11-21T04:48:07;4.95;;;2.00;;
82635;SDS011;72317;37.280;-121.948;2023-11-21T04:50:34;7.93;;;2.42;;
82635;SDS011;72317;37.280;-121.948;2023-11-21T04:53:00;4.82;;;1.90;;
82635;SDS011;72317;37.280;-121.948;2023-11-21T04:55:26;4.15;;;1.90;;
82635;SDS011;72317;37.280;-121.948;2023-11-21T04:57:55;3.35;;;1.77;;
82635;SDS011;72317;37.280;-121.948;2023-11-21T05:00:21;5.97;;;2.38;;
82635;SDS011;72317;37.280;-121.948;2023-11-21T05:02:47;6.72;;;2.20;;
82635;SDS011;72317;37.280;-121.948;2023-11-21T05:05:14;4.18;;;2.25;;
82635;SDS011;72317;37.280;-121.948;2023-11-21T05:07:40;4.53;;;2.03;;
82635;SDS011;72317;37.280;-121.948;2023-11-21T05:10:08;7.47;;;2.00;;
82635;SDS011;72317;37.280;-121.948;2023-11-21T05:12:36;4.32;;;2.13;;
82635;SDS011;72317;37.280;-121.948;2023-11-21T05:15:06;3.63;;;1.67;;
82635;SDS011;72317;37.280;-121.948;2023-11-21T05:17:37;3.40;;;2.30;;
82635;SDS011;72317;37.280;-121.948;2023-11-21T05:20:15;5.70;;;2.92;;
82635;SDS011;72317;37.280;-121.948;2023-11-21T05:22:49;6.00;;;3.20;;
82635;SDS011;72317;37.280;-121.948;2023-11-21T05:25:15;6.75;;;3.00;;
82635;SDS011;72317;37.280;-121.948;2023-11-21T05:27:45;4.60;;;3.15;;
82635;SDS011;72317;37.280;-121.948;2023-11-21T05:30:12;5.45;;;2.97;;
82635;SDS011;72317;37.280;-121.948;2023-11-21T05:32:39;8.38;;;2.53;;
82635;SDS011;72317;37.280;-121.948;2023-11-21T05:35:09;4.53;;;3.08;;
82635;SDS011;72317;37.280;-121.948;2023-11-21T05:37:40;5.40;;;2.70;;
82635;SDS011;72317;37.280;-121.948;2023-11-21T05:40:07;4.97;;;2.95;;
82635;SDS011;72317;37.280;-121.948;2023-11-21T05:42:35;5.18;;;3.05;;
82635;SDS011;72317;37.280;-121.948;2023-11-21T05:45:03;4.78;;;3.00;;
82635;SDS011;72317;37.280;-121.948;2023-11-21T05:47:40;5.15;;;3.00;;
82635;SDS011;72317;37.280;-121.948;2023-11-21T05:50:08;5.78;;;2.97;;
82635;SDS011;72317;37.280;-121.948;2023-11-21T05:52:37;5.00;;;2.70;;
82635;SDS011;72317;37.280;-121.948;2023-11-21T05:55:05;4.07;;;1.83;;
82635;SDS011;72317;37.280;-121.948;2023-11-21T05:57:35;5.00;;;2.10;;
82635;SDS011;72317;37.280;-121.948;2023-11-21T06:00:06;5.30;;;2.03;;
82635;SDS011;72317;37.280;-121.948;2023-11-21T06:02:47;2.65;;;1.80;;
82635;SDS011;72317;37.280;-121.948;2023-11-21T06:05:17;5.00;;;1.83;;
82635;SDS011;72317;37.280;-121.948;2023-11-21T06:07:44;3.78;;;1.65;;
82635;SDS011;72317;37.280;-121.948;2023-11-21T06:10:10;4.32;;;1.80;;
82635;SDS011;72317;37.280;-121.948;2023-11-21T06:12:39;1.95;;;1.52;;
82635;SDS011;72317;37.280;-121.948;2023-11-21T06:15:08;4.35;;;1.67;;
82635;SDS011;72317;37.280;-121.948;2023-11-21T06:17:38;8.25;;;2.17;;
82635;SDS011;72317;37.280;-121.948;2023-11-21T06:20:06;3.10;;;1.77;;
82635;SDS011;72317;37.280;-121.948;2023-11-21T06:22:39;3.95;;;2.17;;
82635;SDS011;72317;37.280;-121.948;2023-11-21T06:25:09;5.28;;;2.47;;
82635;SDS011;72317;37.280;-121.948;2023-11-21T06:27:44;6.32;;;2.85;;
82635;SDS011;72317;37.280;-121.948;2023-11-21T06:30:13;4.80;;;2.42;;
82635;SDS011;72317;37.280;-121.948;2023-11-21T06:32:40;4.47;;;2.60;;
82635;SDS011;72317;37.280;-121.948;2023-11-21T06:35:10;6.25;;;2.78;;
82635;SDS011;72317;37.280;-121.948;2023-11-21T06:37:38;4.55;;;2.63;;
82635;SDS011;72317;37.280;-121.948;2023-11-21T06:40:05;5.03;;;2.40;;
82635;SDS011;72317;37.280;-121.948;2023-11-21T06:42:31;4.38;;;2.42;;
82635;SDS011;72317;37.280;-121.948;2023-11-21T06:44:58;8.35;;;2.55;;
82635;SDS011;72317;37.280;-121.948;2023-11-21T06:47:29;4.60;;;2.10;;
82635;SDS011;72317;37.280;-121.948;2023-11-21T06:49:56;4.07;;;2.03;;
82635;SDS011;72317;37.280;-121.948;2023-11-21T06:52:23;3.45;;;1.88;;
82635;SDS011;72317;37.280;-121.948;2023-11-21T06:54:49;2.85;;;1.90;;
82635;SDS011;72317;37.280;-121.948;2023-11-21T06:57:16;3.92;;;2.05;;
82635;SDS011;72317;37.280;-121.948;2023-11-21T06:59:42;3.97;;;1.80;;
82635;SDS011;72317;37.280;-121.948;2023-11-21T07:02:08;4.22;;;1.90;;
82635;SDS011;72317;37.280;-121.948;2023-11-21T07:04:37;4.57;;;1.80;;
82635;SDS011;72317;37.280;-121.948;2023-11-21T07:07:04;3.33;;;1.85;;
82635;SDS011;72317;37.280;-121.948;2023-11-21T07:09:32;3.58;;;1.70;;
82635;SDS011;72317;37.280;-121.948;2023-11-21T07:11:58;3.03;;;1.50;;
82635;SDS011;72317;37.280;-121.948;2023-11-21T07:14:25;3.35;;;1.60;;
82635;SDS011;72317;37.280;-121.948;2023-11-21T07:16:51;3.33;;;1.70;;
82635;SDS011;72317;37.280;-121.948;2023-11-21T07:19:18;5.20;;;2.05;;
82635;SDS011;72317;37.280;-121.948;2023-11-21T07:21:45;5.53;;;2.10;;
82635;SDS011;72317;37.280;-121.948;2023-11-21T07:24:11;3.45;;;1.80;;
82635;SDS011;72317;37.280;-121.948;2023-11-21T07:26:38;5.32;;;2.00;;
82635;SDS011;72317;37.280;-121.948;2023-11-21T07:29:04;4.20;;;2.20;;
82635;SDS011;72317;37.280;-121.948;2023-11-21T07:31:31;3.65;;;2.03;;
82635;SDS011;72317;37.280;-121.948;2023-11-21T07:33:59;4.93;;;2.47;;
82635;SDS011;72317;37.280;-121.948;2023-11-21T07:36:26;4.53;;;2.30;;
82635;SDS011;72317;37.280;-121.948;2023-11-21T07:38:52;3.65;;;2.05;;
82635;SDS011;72317;37.280;-121.948;2023-11-21T07:41:19;3.78;;;1.90;;
82635;SDS011;72317;37.280;-121.948;2023-11-21T07:43:46;4.28;;;2.03;;
82635;SDS011;72317;37.280;-121.948;2023-11-21T07:46:13;4.05;;;2.10;;
82635;SDS011;72317;37.280;-121.948;2023-11-21T07:48:40;4.63;;;2.10;;
82635;SDS011;72317;37.280;-121.948;2023-11-21T07:51:11;6.35;;;2.33;;
82635;SDS011;72317;37.280;-121.948;2023-11-21T07:53:38;3.88;;;1.88;;
82635;SDS011;72317;37.280;-121.948;2023-11-21T07:56:05;4.95;;;2.10;;
82635;SDS011;72317;37.280;-121.948;2023-11-21T07:58:33;4.88;;;1.95;;
82635;SDS011;72317;37.280;-121.948;2023-11-21T08:01:00;4.03;;;1.95;;
82635;SDS011;72317;37.280;-121.948;2023-11-21T08:03:27;6.13;;;2.05;;
82635;SDS011;72317;37.280;-121.948;2023-11-21T08:05:57;3.90;;;1.95;;
82635;SDS011;72317;37.280;-121.948;2023-11-21T08:08:25;4.43;;;2.00;;
82635;SDS011;72317;37.280;-121.948;2023-11-21T08:10:52;5.20;;;1.80;;
82635;SDS011;72317;37.280;-121.948;2023-11-21T08:13:25;4.40;;;1.80;;
82635;SDS011;72317;37.280;-121.948;2023-11-21T08:15:55;3.42;;;1.88;;
82635;SDS011;72317;37.280;-121.948;2023-11-21T08:18:22;3.33;;;1.60;;
82635;SDS011;72317;37.280;-121.948;2023-11-21T08:20:48;4.05;;;1.70;;
82635;SDS011;72317;37.280;-121.948;2023-11-21T08:23:15;2.85;;;1.35;;
82635;SDS011;72317;37.280;-121.948;2023-11-21T08:25:44;3.15;;;1.55;;
82635;SDS011;72317;37.280;-121.948;2023-11-21T08:28:10;3.90;;;1.60;;
82635;SDS011;72317;37.280;-121.948;2023-11-21T08:30:37;2.85;;;1.50;;
82635;SDS011;72317;37.280;-121.948;2023-11-21T08:33:04;4.65;;;1.70;;
82635;SDS011;72317;37.280;-121.948;2023-11-21T08:35:31;5.53;;;1.90;;
82635;SDS011;72317;37.280;-121.948;2023-11-21T08:37:57;3.90;;;2.00;;
82635;SDS011;72317;37.280;-121.948;2023-11-21T08:40:23;3.65;;;2.10;;
82635;SDS011;72317;37.280;-121.948;2023-11-21T08:42:50;3.92;;;1.98;;
82635;SDS011;72317;37.280;-121.948;2023-11-21T08:45:18;3.13;;;2.03;;
82635;SDS011;72317;37.280;-121.948;2023-11-21T08:47:45;5.15;;;2.30;;
82635;SDS011;72317;37.280;-121.948;2023-11-21T08:50:11;3.13;;;2.30;;
82635;SDS011;72317;37.280;-121.948;2023-11-21T08:52:38;7.40;;;2.25;;
82635;SDS011;72317;37.280;-121.948;2023-11-21T08:55:06;3.60;;;2.03;;
82635;SDS011;72317;37.280;-121.948;2023-11-21T08:57:40;4.43;;;2.28;;
82635;SDS011;72317;37.280;-121.948;2023-11-21T09:00:09;4.22;;;2.25;;
82635;SDS011;72317;37.280;-121.948;2023-11-21T09:02:44;4.50;;;2.28;;
82635;SDS011;72317;37.280;-121.948;2023-11-21T09:05:11;4.40;;;2.30;;
82635;SDS011;72317;37.280;-121.948;2023-11-21T09:07:39;4.00;;;2.25;;
82635;SDS011;72317;37.280;-121.948;2023-11-21T09:10:09;4.82;;;2.33;;
82635;SDS011;72317;37.280;-121.948;2023-11-21T09:12:36;3.63;;;2.00;;
82635;SDS011;72317;37.280;-121.948;2023-11-21T09:15:06;4.47;;;2.10;;
82635;SDS011;72317;37.280;-121.948;2023-11-21T09:17:35;5.28;;;2.22;;
82635;SDS011;72317;37.280;-121.948;2023-11-21T09:20:01;3.78;;;2.10;;
82635;SDS011;72317;37.280;-121.948;2023-11-21T09:22:30;3.50;;;1.90;;
82635;SDS011;72317;37.280;-121.948;2023-11-21T09:24:57;4.15;;;2.40;;
82635;SDS011;72317;37.280;-121.948;2023-11-21T09:27:23;4.25;;;2.10;;
82635;SDS011;72317;37.280;-121.948;2023-11-21T09:29:51;4.25;;;2.40;;
82635;SDS011;72317;37.280;-121.948;2023-11-21T09:32:18;4.45;;;1.80;;
82635;SDS011;72317;37.280;-121.948;2023-11-21T09:34:44;3.03;;;1.63;;
82635;SDS011;72317;37.280;-121.948;2023-11-21T09:37:10;3.50;;;2.03;;
82635;SDS011;72317;37.280;-121.948;2023-11-21T09:39:36;6.03;;;2.20;;
82635;SDS011;72317;37.280;-121.948;2023-11-21T09:42:10;4.13;;;1.60;;
82635;SDS011;72317;37.280;-121.948;2023-11-21T09:44:43;5.10;;;1.70;;
82635;SDS011;72317;37.280;-121.948;2023-11-21T09:47:11;4.05;;;1.70;;
82635;SDS011;72317;37.280;-121.948;2023-11-21T09:49:42;5.28;;;1.95;;
82635;SDS011;72317;37.280;-121.948;2023-11-21T09:52:15;5.75;;;1.90;;
82635;SDS011;72317;37.280;-121.948;2023-11-21T09:54:51;5.20;;;1.88;;
82635;SDS011;72317;37.280;-121.948;2023-11-21T09:57:27;8.05;;;2.20;;
82635;SDS011;72317;37.280;-121.948;2023-11-21T09:59:54;3.50;;;1.80;;
82635;SDS011;72317;37.280;-121.948;2023-11-21T10:02:27;5.80;;;1.95;;
82635;SDS011;72317;37.280;-121.948;2023-11-21T10:04:58;5.15;;;1.60;;
82635;SDS011;72317;37.280;-121.948;2023-11-21T10:07:25;3.42;;;1.80;;
82635;SDS011;72317;37.280;-121.948;2023-11-21T10:09:54;3.80;;;1.75;;
82635;SDS011;72317;37.280;-121.948;2023-11-21T10:12:21;5.78;;;1.77;;
82635;SDS011;72317;37.280;-121.948;2023-11-21T10:14:49;3.97;;;1.83;;
82635;SDS011;72317;37.280;-121.948;2023-11-21T10:17:18;4.65;;;1.92;;
82635;SDS011;72317;37.280;-121.948;2023-11-21T10:19:46;4.32;;;1.45;;
82635;SDS011;72317;37.280;-121.948;2023-11-21T10:22:15;6.28;;;1.67;;
82635;SDS011;72317;37.280;-121.948;2023-11-21T10:24:42;3.38;;;1.52;;
82635;SDS011;72317;37.280;-121.948;2023-11-21T10:27:09;3.97;;;1.63;;
82635;SDS011;72317;37.280;-121.948;2023-11-21T10:29:35;3.88;;;1.75;;
82635;SDS011;72317;37.280;-121.948;2023-11-21T10:32:01;3.60;;;1.40;;
82635;SDS011;72317;37.280;-121.948;2023-11-21T10:34:28;2.15;;;1.30;;
82635;SDS011;72317;37.280;-121.948;2023-11-21T10:36:55;3.35;;;1.40;;
82635;SDS011;72317;37.280;-121.948;2023-11-21T10:39:23;4.25;;;1.40;;
82635;SDS011;72317;37.280;-121.948;2023-11-21T10:41:55;3.08;;;1.50;;
82635;SDS011;72317;37.280;-121.948;2023-11-21T10:44:22;6.22;;;1.63;;
82635;SDS011;72317;37.280;-121.948;2023-11-21T10:46:52;5.60;;;1.60;;
82635;SDS011;72317;37.280;-121.948;2023-11-21T10:49:25;3.72;;;1.70;;
82635;SDS011;72317;37.280;-121.948;2023-11-21T10:51:55;4.35;;;1.40;;
82635;SDS011;72317;37.280;-121.948;2023-11-21T10:54:22;2.53;;;1.75;;
82635;SDS011;72317;37.280;-121.948;2023-11-21T10:56:53;3.85;;;1.35;;
82635;SDS011;72317;37.280;-121.948;2023-11-21T10:59:22;7.72;;;1.60;;
82635;SDS011;72317;37.280;-121.948;2023-11-21T11:01:50;6.50;;;1.60;;
82635;SDS011;72317;37.280;-121.948;2023-11-21T11:04:18;2.38;;;1.60;;
82635;SDS011;72317;37.280;-121.948;2023-11-21T11:06:54;3.55;;;1.77;;
82635;SDS011;72317;37.280;-121.948;2023-11-21T11:09:22;4.88;;;1.73;;
82635;SDS011;72317;37.280;-121.948;2023-11-21T11:11:49;3.30;;;1.75;;
82635;SDS011;72317;37.280;-121.948;2023-11-21T11:14:16;2.47;;;1.60;;
82635;SDS011;72317;37.280;-121.948;2023-11-21T11:16:45;4.47;;;1.50;;
82635;SDS011;72317;37.280;-121.948;2023-11-21T11:19:11;4.90;;;1.70;;
82635;SDS011;72317;37.280;-121.948;2023-11-21T11:24:54;5.13;;;1.50;;
82635;SDS011;72317;37.280;-121.948;2023-11-21T11:33:31;3.08;;;1.60;;
82635;SDS011;72317;37.280;-121.948;2023-11-21T11:39:31;2.95;;;1.83;;
82635;SDS011;72317;37.280;-121.948;2023-11-21T11:42:08;4.38;;;1.70;;
82635;SDS011;72317;37.280;-121.948;2023-11-21T11:47:25;5.57;;;1.92;;
82635;SDS011;72317;37.280;-121.948;2023-11-21T11:50:08;2.60;;;1.60;;
82635;SDS011;72317;37.280;-121.948;2023-11-21T11:52:49;3.08;;;1.67;;
82635;SDS011;72317;37.280;-121.948;2023-11-21T11:55:17;3.80;;;1.67;;
82635;SDS011;72317;37.280;-121.948;2023-11-21T11:57:45;6.22;;;1.90;;
82635;SDS011;72317;37.280;-121.948;2023-11-21T12:02:59;7.20;;;1.88;;
82635;SDS011;72317;37.280;-121.948;2023-11-21T12:05:30;3.85;;;1.80;;
82635;SDS011;72317;37.280;-121.948;2023-11-21T12:08:10;4.55;;;1.77;;
82635;SDS011;72317;37.280;-121.948;2023-11-21T12:10:38;5.68;;;1.77;;
82635;SDS011;72317;37.280;-121.948;2023-11-21T12:13:08;5.55;;;1.88;;
82635;SDS011;72317;37.280;-121.948;2023-11-21T12:15:37;4.32;;;1.70;;
82635;SDS011;72317;37.280;-121.948;2023-11-21T12:18:05;6.18;;;1.77;;
82635;SDS011;72317;37.280;-121.948;2023-11-21T12:20:31;4.55;;;1.35;;
82635;SDS011;72317;37.280;-121.948;2023-11-21T12:23:03;3.05;;;1.48;;
82635;SDS011;72317;37.280;-121.948;2023-11-21T12:25:31;4.07;;;1.58;;
82635;SDS011;72317;37.280;-121.948;2023-11-21T12:27:58;2.85;;;1.35;;
82635;SDS011;72317;37.280;-121.948;2023-11-21T12:30:35;3.53;;;1.60;;
82635;SDS011;72317;37.280;-121.948;2023-11-21T12:33:03;5.20;;;1.60;;
82635;SDS011;72317;37.280;-121.948;2023-11-21T12:35:34;4.00;;;1.45;;
82635;SDS011;72317;37.280;-121.948;2023-11-21T12:38:01;4.47;;;1.60;;
82635;SDS011;72317;37.280;-121.948;2023-11-21T12:40:30;7.30;;;2.08;;
82635;SDS011;72317;37.280;-121.948;2023-11-21T12:42:57;2.78;;;1.70;;
82635;SDS011;72317;37.280;-121.948;2023-11-21T12:45:27;6.47;;;2.00;;
82635;SDS011;72317;37.280;-121.948;2023-11-21T12:48:00;3.97;;;1.63;;
82635;SDS011;72317;37.280;-121.948;2023-11-21T12:50:33;3.13;;;1.63;;
82635;SDS011;72317;37.280;-121.948;2023-11-21T12:53:08;2.35;;;1.63;;
82635;SDS011;72317;37.280;-121.948;2023-11-21T12:55:38;4.15;;;2.03;;
82635;SDS011;72317;37.280;-121.948;2023-11-21T12:58:05;4.03;;;1.92;;
82635;SDS011;72317;37.280;-121.948;2023-11-21T13:00:40;5.53;;;1.80;;
82635;SDS011;72317;37.280;-121.948;2023-11-21T13:03:11;3.22;;;1.50;;
82635;SDS011;72317;37.280;-121.948;2023-11-21T13:05:42;4.78;;;1.88;;
82635;SDS011;72317;37.280;-121.948;2023-11-21T13:08:16;1.83;;;1.40;;
82635;SDS011;72317;37.280;-121.948;2023-11-21T13:10:45;5.10;;;1.55;;
82635;SDS011;72317;37.280;-121.948;2023-11-21T13:13:14;8.10;;;1.75;;
82635;SDS011;72317;37.280;-121.948;2023-11-21T13:15:50;3.25;;;1.60;;
82635;SDS011;72317;37.280;-121.948;2023-11-21T13:18:27;6.68;;;1.90;;
82635;SDS011;72317;37.280;-121.948;2023-11-21T13:20:57;9.50;;;1.65;;
82635;SDS011;72317;37.280;-121.948;2023-11-21T13:23:24;3.45;;;1.30;;
82635;SDS011;72317;37.280;-121.948;2023-11-21T13:25:55;4.72;;;1.50;;
82635;SDS011;72317;37.280;-121.948;2023-11-21T13:28:21;5.68;;;1.92;;
82635;SDS011;72317;37.280;-121.948;2023-11-21T13:30:49;4.82;;;1.70;;
82635;SDS011;72317;37.280;-121.948;2023-11-21T13:33:18;2.97;;;1.50;;
82635;SDS011;72317;37.280;-121.948;2023-11-21T13:35:47;2.95;;;1.70;;
82635;SDS011;72317;37.280;-121.948;2023-11-21T13:38:15;4.47;;;1.35;;
82635;SDS011;72317;37.280;-121.948;2023-11-21T13:40:46;2.97;;;1.75;;
82635;SDS011;72317;37.280;-121.948;2023-11-21T13:43:17;4.03;;;1.65;;
82635;SDS011;72317;37.280;-121.948;2023-11-21T13:45:46;4.68;;;1.80;;
82635;SDS011;72317;37.280;-121.948;2023-11-21T13:48:17;5.20;;;1.90;;
82635;SDS011;72317;37.280;-121.948;2023-11-21T13:50:50;4.57;;;1.90;;
82635;SDS011;72317;37.280;-121.948;2023-11-21T13:53:48;3.70;;;1.73;;
82635;SDS011;72317;37.280;-121.948;2023-11-21T13:56:18;4.25;;;1.77;;
82635;SDS011;72317;37.280;-121.948;2023-11-21T13:58:47;6.78;;;2.00;;
82635;SDS011;72317;37.280;-121.948;2023-11-21T14:01:16;5.88;;;2.17;;
82635;SDS011;72317;37.280;-121.948;2023-11-21T14:03:56;3.13;;;1.90;;
82635;SDS011;72317;37.280;-121.948;2023-11-21T14:06:27;6.07;;;1.80;;
82635;SDS011;72317;37.280;-121.948;2023-11-21T14:09:02;3.50;;;1.88;;
82635;SDS011;72317;37.280;-121.948;2023-11-21T14:11:31;5.15;;;2.10;;
82635;SDS011;72317;37.280;-121.948;2023-11-21T14:13:57;4.85;;;2.03;;
82635;SDS011;72317;37.280;-121.948;2023-11-21T14:16:24;8.00;;;2.15;;
82635;SDS011;72317;37.280;-121.948;2023-11-21T14:18:50;5.10;;;2.30;;
82635;SDS011;72317;37.280;-121.948;2023-11-21T14:21:27;5.97;;;2.20;;
82635;SDS011;72317;37.280;-121.948;2023-11-21T14:23:53;3.83;;;2.20;;
82635;SDS011;72317;37.280;-121.948;2023-11-21T14:26:22;6.03;;;2.15;;
82635;SDS011;72317;37.280;-121.948;2023-11-21T14:28:50;5.20;;;2.20;;
82635;SDS011;72317;37.280;-121.948;2023-11-21T14:31:16;7.05;;;2.20;;
82635;SDS011;72317;37.280;-121.948;2023-11-21T14:33:45;11.52;;;2.35;;